This is the latest recevied weather packets stored in our database for station/object AC8JV. If no packets are shown the sender has not sent any weather packets the latest 1 day(s).
| Time | Temp. | Humidity | Pressure | Rain* | Wind** | Luminosity | Snow |
|---|---|---|---|---|---|---|---|
| 1778097605 | 12.78° C | 40% | 1014.2 hPa | 0 mm | - | - | - |
| 1778095202 | 12.22° C | 41% | 1014.3 hPa | 0 mm | - | - | - |
| 1778091618 | 12.22° C | 41% | 1014.1 hPa | 0 mm | - | - | - |
| 1778082021 | 11.11° C | 42% | 1014.5 hPa | 0 mm | - | - | - |
| 1778075400 | 8.33° C | 58% | 1014 hPa | 0 mm | - | - | - |
| 1778067609 | 2.78° C | 78% | 1012.9 hPa | 0 mm | - | - | - |
| 1778065212 | 2.78° C | 79% | 1012 hPa | 0 mm | - | - | - |
| 1778064624 | 2.78° C | 79% | 1011.9 hPa | 0 mm | - | - | - |
| 1778063422 | 2.78° C | 80% | 1012.1 hPa | 0 mm | - | - | - |
| 1778062810 | 2.78° C | 80% | 1012.1 hPa | 0 mm | - | - | - |
| 1778062212 | 2.78° C | 81% | 1012.3 hPa | 0 mm | - | - | - |
| 1778061608 | 2.78° C | 80% | 1012.1 hPa | 0 mm | - | - | - |
| 1778059806 | 2.78° C | 80% | 1011.9 hPa | 0 mm | - | - | - |
| 1778056813 | 3.33° C | 77% | 1011.2 hPa | 0 mm | - | - | - |
| 1778056214 | 3.33° C | 76% | 1011.4 hPa | 0 mm | - | - | - |
| 1778055640 | 3.89° C | 76% | 1011.2 hPa | 0 mm | - | - | - |
| 1778055008 | 3.89° C | 75% | 1011.3 hPa | 0 mm | - | - | - |
| 1778054401 | 3.89° C | 75% | 1011.4 hPa | 0 mm | - | - | - |
| 1778053217 | 4.44° C | 74% | 1011.5 hPa | 0 mm | - | - | - |
| 1778052605 | 4.44° C | 72% | 1011.3 hPa | 0 mm | - | - | - |
| 1778052007 | 5° C | 72% | 1011.4 hPa | 0 mm | - | - | - |
| 1778051433 | 5° C | 71% | 1011.3 hPa | 0 mm | - | - | - |
| 1778049613 | 5.56° C | 69% | 1011.4 hPa | 0 mm | - | - | - |
| 1778048407 | 6.11° C | 70% | 1011.4 hPa | 0 mm | - | - | - |
| 1778046619 | 6.11° C | 71% | 1011.7 hPa | 0 mm | - | - | - |
* Rain latest hour (hover to see other rain measurements)
** Current wind speed in m/s (hover to see current wind gust speed)